createdAt,value
2023-05-04T00:02:26.657Z,22.83
2023-05-04T00:04:54.499Z,20.33
2023-05-04T00:07:24.294Z,19.48
2023-05-04T00:09:54.195Z,16.05
2023-05-04T00:12:21.347Z,14.15
2023-05-04T00:14:48.675Z,13.02
2023-05-04T00:17:15.973Z,12.00
2023-05-04T00:19:44.737Z,15.75
2023-05-04T00:22:11.988Z,16.33
2023-05-04T00:24:39.295Z,14.60
2023-05-04T00:27:06.658Z,11.80
2023-05-04T00:29:33.776Z,12.77
2023-05-04T00:32:01.560Z,13.15
2023-05-04T00:34:30.996Z,16.83
2023-05-04T00:36:58.108Z,15.23
2023-05-04T00:39:25.143Z,12.07
2023-05-04T00:41:52.199Z,21.73
2023-05-04T00:44:20.374Z,12.60
2023-05-04T00:46:47.568Z,12.23
2023-05-04T00:49:14.937Z,14.20
2023-05-04T00:51:42.158Z,13.23
2023-05-04T00:54:09.231Z,17.38
2023-05-04T00:56:42.213Z,14.05
2023-05-04T00:59:09.615Z,17.63
2023-05-04T01:01:36.746Z,12.65
2023-05-04T01:04:04.111Z,14.52
2023-05-04T01:06:48.079Z,13.82
2023-05-04T01:09:37.502Z,12.70
2023-05-04T01:12:13.414Z,12.18
2023-05-04T01:14:41.654Z,16.50
2023-05-04T01:17:08.919Z,11.43
2023-05-04T01:19:36.234Z,13.18
2023-05-04T01:22:03.418Z,13.30
2023-05-04T01:24:32.001Z,14.00
2023-05-04T01:27:23.360Z,15.15
2023-05-04T01:30:03.116Z,14.77
2023-05-04T01:32:32.507Z,11.20
2023-05-04T01:35:00.250Z,12.10
2023-05-04T01:37:27.407Z,13.43
2023-05-04T01:39:54.664Z,12.98
2023-05-04T01:42:21.782Z,12.93
2023-05-04T01:44:48.915Z,13.80
2023-05-04T01:47:16.549Z,13.95
2023-05-04T01:49:43.624Z,14.00
2023-05-04T01:52:10.821Z,17.52
2023-05-04T01:54:37.985Z,12.60
2023-05-04T01:57:05.096Z,14.30
2023-05-04T01:59:32.201Z,14.63
2023-05-04T02:01:59.462Z,12.25
2023-05-04T02:04:26.722Z,14.65
2023-05-04T02:06:53.792Z,13.98
2023-05-04T02:09:20.848Z,14.25
2023-05-04T02:11:47.945Z,16.73
2023-05-04T02:14:14.994Z,15.38
2023-05-04T02:16:42.156Z,14.63
2023-05-04T02:19:09.235Z,13.55
2023-05-04T02:21:36.336Z,15.23
2023-05-04T02:24:06.297Z,14.00
2023-05-04T02:26:33.633Z,13.85
2023-05-04T02:29:00.786Z,14.23
2023-05-04T02:31:28.010Z,16.00
2023-05-04T02:33:55.170Z,14.27
2023-05-04T02:36:22.248Z,14.13
2023-05-04T02:38:49.294Z,13.98
2023-05-04T02:41:16.331Z,13.18
2023-05-04T02:43:43.423Z,12.70
2023-05-04T02:46:10.656Z,14.02
2023-05-04T02:48:37.754Z,11.90
2023-05-04T02:51:06.736Z,12.20
2023-05-04T02:53:33.795Z,13.35
2023-05-04T02:56:00.845Z,13.65
2023-05-04T02:58:28.018Z,15.52
2023-05-04T03:00:56.181Z,14.80
2023-05-04T03:03:23.314Z,12.75
2023-05-04T03:05:50.481Z,18.90
2023-05-04T03:08:17.579Z,15.65
2023-05-04T03:10:44.651Z,17.33
2023-05-04T03:13:11.943Z,11.77
2023-05-04T03:15:39.250Z,15.02
2023-05-04T03:18:06.628Z,11.15
2023-05-04T03:20:33.689Z,14.20
2023-05-04T03:23:00.781Z,15.30
2023-05-04T03:25:27.928Z,16.88
2023-05-04T03:27:55.189Z,9.52
2023-05-04T03:30:22.309Z,9.60
2023-05-04T03:32:49.754Z,12.43
2023-05-04T03:35:24.118Z,13.90
2023-05-04T03:37:51.910Z,12.43
2023-05-04T03:40:23.097Z,13.07
2023-05-04T03:42:53.875Z,15.05
2023-05-04T03:45:22.132Z,10.63
2023-05-04T03:47:49.250Z,10.73
2023-05-04T03:50:16.281Z,13.13
2023-05-04T03:52:43.346Z,14.40
2023-05-04T03:55:10.592Z,13.07
2023-05-04T03:57:37.716Z,11.35
2023-05-04T04:00:05.970Z,16.00
2023-05-04T04:02:33.660Z,12.30
2023-05-04T04:05:00.889Z,15.65
2023-05-04T04:07:27.993Z,14.30
2023-05-04T04:09:55.088Z,11.55
2023-05-04T04:12:22.131Z,12.70
2023-05-04T04:14:51.890Z,15.68
2023-05-04T04:17:19.254Z,18.60
2023-05-04T04:19:46.443Z,16.02
2023-05-04T04:22:13.521Z,16.67
2023-05-04T04:24:40.637Z,17.33
2023-05-04T04:27:07.785Z,11.40
2023-05-04T04:29:35.630Z,11.32
2023-05-04T04:32:03.648Z,16.08
2023-05-04T04:34:30.737Z,13.75
2023-05-04T04:36:58.895Z,14.98
2023-05-04T04:39:25.990Z,13.18
2023-05-04T04:41:53.075Z,12.95
2023-05-04T04:44:20.829Z,16.40
2023-05-04T04:46:48.586Z,11.70
2023-05-04T04:49:17.844Z,10.77
2023-05-04T04:51:45.108Z,14.90
2023-05-04T04:54:12.146Z,18.77
2023-05-04T04:56:44.991Z,15.10
2023-05-04T04:59:13.080Z,14.18
2023-05-04T05:01:42.164Z,13.70
2023-05-04T05:04:09.404Z,16.08
2023-05-04T05:06:36.842Z,12.43
2023-05-04T05:09:04.311Z,28.27
2023-05-04T05:11:32.716Z,14.68
2023-05-04T05:14:00.004Z,14.70
2023-05-04T05:16:27.484Z,14.15
2023-05-04T05:18:54.699Z,14.00
2023-05-04T05:21:21.953Z,12.05
2023-05-04T05:23:49.062Z,16.40
2023-05-04T05:26:16.273Z,12.05
2023-05-04T05:28:43.424Z,13.43
2023-05-04T05:31:10.545Z,12.88
2023-05-04T05:33:38.780Z,9.05
2023-05-04T05:36:06.148Z,13.13
2023-05-04T05:38:33.263Z,16.90
2023-05-04T05:41:00.300Z,12.23
2023-05-04T05:43:27.409Z,10.82
2023-05-04T05:45:54.554Z,14.05
2023-05-04T05:48:21.715Z,16.98
2023-05-04T05:50:48.851Z,14.32
2023-05-04T05:53:15.905Z,13.60
2023-05-04T05:55:42.988Z,12.25
2023-05-04T05:58:10.101Z,21.35
2023-05-04T06:00:37.147Z,12.80
2023-05-04T06:03:04.397Z,10.10
2023-05-04T06:05:34.268Z,11.30
2023-05-04T06:08:01.317Z,16.63
2023-05-04T06:10:28.656Z,8.82
2023-05-04T06:12:55.806Z,17.42
2023-05-04T06:15:22.998Z,10.55
2023-05-04T06:17:50.131Z,9.80
2023-05-04T06:20:17.937Z,15.43
2023-05-04T06:22:44.987Z,11.50
2023-05-04T06:25:12.465Z,12.10
2023-05-04T06:27:40.015Z,11.05
2023-05-04T06:30:08.376Z,15.45
2023-05-04T06:32:35.931Z,13.40
2023-05-04T06:35:03.527Z,14.00
2023-05-04T06:37:30.710Z,13.60
2023-05-04T06:39:57.785Z,13.35
2023-05-04T06:42:24.926Z,13.02
2023-05-04T06:44:52.523Z,13.77
2023-05-04T06:47:19.634Z,14.45
2023-05-04T06:49:46.794Z,13.00
2023-05-04T06:52:14.470Z,12.75
2023-05-04T06:54:41.522Z,19.30
2023-05-04T06:57:08.657Z,12.25
2023-05-04T06:59:35.774Z,15.20
2023-05-04T07:02:02.846Z,20.48
2023-05-04T07:04:30.130Z,12.00
2023-05-04T07:06:57.270Z,12.60
2023-05-04T07:09:24.363Z,12.35
2023-05-04T07:11:51.452Z,15.23
2023-05-04T07:14:18.540Z,15.15
2023-05-04T07:16:45.737Z,16.25
2023-05-04T07:19:12.916Z,11.02
2023-05-04T07:21:40.050Z,11.98
2023-05-04T07:24:08.076Z,14.18
2023-05-04T07:26:35.176Z,10.23
2023-05-04T07:29:02.336Z,16.77
2023-05-04T07:31:30.584Z,12.02
2023-05-04T07:33:58.072Z,11.73
2023-05-04T07:36:26.710Z,11.13
2023-05-04T07:38:54.380Z,13.52
2023-05-04T07:41:21.735Z,14.48
2023-05-04T07:43:49.097Z,14.07
2023-05-04T07:46:16.535Z,9.25
2023-05-04T07:48:43.668Z,8.02
2023-05-04T07:51:15.161Z,12.48
2023-05-04T07:53:43.688Z,12.48
2023-05-04T07:56:14.136Z,10.60
2023-05-04T07:58:42.034Z,15.40
2023-05-04T08:01:09.237Z,11.50
2023-05-04T08:03:36.485Z,15.50
2023-05-04T08:06:03.719Z,13.07
2023-05-04T08:08:31.077Z,11.25
2023-05-04T08:11:11.961Z,11.52
2023-05-04T08:13:46.609Z,15.52
2023-05-04T08:16:14.071Z,10.82
2023-05-04T08:18:41.159Z,9.63
2023-05-04T08:21:08.426Z,14.18
2023-05-04T08:23:36.355Z,10.25
2023-05-04T08:26:04.857Z,13.27
2023-05-04T08:28:39.032Z,12.68
2023-05-04T08:31:06.681Z,11.15
2023-05-04T08:33:34.781Z,13.02
2023-05-04T08:36:02.168Z,20.85
2023-05-04T08:38:29.879Z,16.48
2023-05-04T08:40:57.607Z,12.85
2023-05-04T08:43:24.808Z,11.07
2023-05-04T08:45:51.926Z,11.60
2023-05-04T08:48:19.516Z,13.52
2023-05-04T08:50:47.697Z,11.70
2023-05-04T08:53:18.797Z,8.55
2023-05-04T08:55:49.774Z,6.97
2023-05-04T08:58:18.851Z,7.88
2023-05-04T09:00:46.527Z,6.50
2023-05-04T09:03:14.910Z,10.07
2023-05-04T09:05:46.344Z,11.32
2023-05-04T09:08:14.587Z,7.13
2023-05-04T09:10:41.845Z,8.63
2023-05-04T09:13:09.022Z,8.38
2023-05-04T09:15:36.388Z,11.38
2023-05-04T09:18:03.457Z,7.18
2023-05-04T09:20:31.584Z,8.88
2023-05-04T09:23:09.710Z,4.38
2023-05-04T09:25:54.111Z,8.13
2023-05-04T09:28:38.636Z,7.13
2023-05-04T09:31:07.349Z,7.97
2023-05-04T09:33:35.222Z,8.10
2023-05-04T09:36:16.499Z,5.97
2023-05-04T09:38:44.407Z,8.73
2023-05-04T09:41:11.809Z,8.13
2023-05-04T09:43:43.908Z,6.90
2023-05-04T09:46:18.802Z,8.65
2023-05-04T09:48:55.204Z,6.43
2023-05-04T09:51:27.652Z,5.90
2023-05-04T09:53:55.423Z,6.32
2023-05-04T09:56:30.191Z,9.02
2023-05-04T09:58:58.840Z,5.85
2023-05-04T10:01:30.088Z,10.10
2023-05-04T10:03:57.830Z,12.82
2023-05-04T10:06:25.104Z,7.78
2023-05-04T10:08:52.486Z,7.82
2023-05-04T10:11:20.798Z,9.73
2023-05-04T10:13:49.595Z,11.43
2023-05-04T10:16:59.346Z,6.47
2023-05-04T10:19:42.909Z,8.20
2023-05-04T10:22:53.037Z,8.98
2023-05-04T10:25:54.408Z,10.05
2023-05-04T10:28:39.514Z,9.13
2023-05-04T10:31:07.532Z,10.43
2023-05-04T10:33:42.317Z,7.00
2023-05-04T10:36:10.857Z,7.07
2023-05-04T10:38:39.918Z,16.67
2023-05-04T10:41:21.506Z,10.93
2023-05-04T10:43:50.945Z,10.63
2023-05-04T10:46:23.234Z,8.75
2023-05-04T10:48:51.150Z,7.18
2023-05-04T10:51:32.703Z,5.93
2023-05-04T10:54:16.958Z,6.25
2023-05-04T10:56:44.059Z,9.95
2023-05-04T10:59:11.262Z,8.85
2023-05-04T11:01:45.057Z,14.23
2023-05-04T11:04:24.570Z,6.95
2023-05-04T11:07:00.152Z,10.25
2023-05-04T11:09:34.856Z,6.60
2023-05-04T11:12:02.442Z,6.07
2023-05-04T11:14:29.665Z,8.07
2023-05-04T11:17:26.806Z,6.65
2023-05-04T11:19:55.705Z,5.35
2023-05-04T11:22:22.991Z,4.88
2023-05-04T11:24:50.265Z,8.55
2023-05-04T11:27:31.436Z,6.38
2023-05-04T11:30:05.177Z,8.27
2023-05-04T11:32:43.715Z,7.57
2023-05-04T11:35:18.039Z,5.28
2023-05-04T11:37:47.530Z,12.45
2023-05-04T11:40:33.232Z,6.60
2023-05-04T11:43:01.434Z,11.60
2023-05-04T11:45:36.643Z,5.80
2023-05-04T11:48:04.570Z,6.80
2023-05-04T11:50:32.020Z,9.35
2023-05-04T11:53:09.393Z,5.95
2023-05-04T11:55:40.119Z,7.85
2023-05-04T11:58:11.642Z,5.53
2023-05-04T12:00:47.016Z,7.10
2023-05-04T12:03:17.694Z,7.53
2023-05-04T12:05:53.930Z,6.88
2023-05-04T12:08:42.018Z,6.65
2023-05-04T12:11:20.465Z,6.97
2023-05-04T12:13:49.562Z,9.00
2023-05-04T12:16:19.465Z,12.65
2023-05-04T12:18:47.852Z,5.50
2023-05-04T12:21:19.513Z,6.55
2023-05-04T12:23:47.532Z,4.13
2023-05-04T12:26:18.142Z,10.93
2023-05-04T12:28:47.033Z,4.25
2023-05-04T12:31:14.151Z,5.93
2023-05-04T12:33:41.524Z,6.20
2023-05-04T12:36:08.936Z,4.95
2023-05-04T12:38:37.565Z,3.90
2023-05-04T12:41:06.181Z,6.00
2023-05-04T12:43:33.797Z,8.48
2023-05-04T12:46:00.902Z,5.47
2023-05-04T12:48:32.894Z,5.90
2023-05-04T12:51:01.611Z,8.02
2023-05-04T12:53:31.970Z,8.85
2023-05-04T12:56:01.065Z,6.85
2023-05-04T12:58:28.733Z,5.03
2023-05-04T13:00:57.893Z,6.70
2023-05-04T13:03:25.412Z,4.93
2023-05-04T13:05:52.880Z,5.38
2023-05-04T13:08:20.033Z,6.03
2023-05-04T13:10:47.254Z,5.28
2023-05-04T13:13:17.258Z,6.55
2023-05-04T13:15:45.036Z,7.60
2023-05-04T13:18:13.138Z,5.38
2023-05-04T13:20:40.900Z,10.15
2023-05-04T13:23:08.126Z,5.57
2023-05-04T13:25:35.289Z,3.63
2023-05-04T13:28:03.480Z,7.05
2023-05-04T13:30:30.656Z,9.23
2023-05-04T13:32:57.793Z,5.63
2023-05-04T13:35:25.125Z,8.93
2023-05-04T13:37:52.614Z,4.63
2023-05-04T13:40:20.711Z,4.00
2023-05-04T13:42:48.193Z,8.15
2023-05-04T13:45:15.402Z,6.15
2023-05-04T13:47:44.098Z,4.55
2023-05-04T13:50:11.543Z,5.43
2023-05-04T13:52:38.701Z,5.90
2023-05-04T13:55:06.556Z,5.03
2023-05-04T13:57:33.843Z,5.70
2023-05-04T14:00:07.593Z,5.88
2023-05-04T14:02:35.381Z,5.40
2023-05-04T14:05:04.252Z,5.53
2023-05-04T14:07:31.646Z,4.40
2023-05-04T14:09:59.435Z,6.60
2023-05-04T14:12:27.491Z,8.32
2023-05-04T14:14:54.657Z,4.38
2023-05-04T14:17:22.640Z,7.15
2023-05-04T14:19:49.835Z,6.65
2023-05-04T14:22:17.186Z,6.82
2023-05-04T14:24:44.451Z,4.88
2023-05-04T14:27:11.719Z,4.72
2023-05-04T14:29:38.831Z,3.67
2023-05-04T14:32:06.070Z,4.00
2023-05-04T14:34:33.519Z,4.07
2023-05-04T14:37:01.364Z,9.88
2023-05-04T14:39:28.459Z,6.43
2023-05-04T14:41:57.189Z,3.58
2023-05-04T14:44:26.206Z,4.35
2023-05-04T14:46:53.398Z,8.98
2023-05-04T14:49:34.834Z,4.47
2023-05-04T14:52:03.976Z,4.38
2023-05-04T14:54:31.145Z,6.90
2023-05-04T14:56:59.068Z,6.68
2023-05-04T14:59:26.778Z,6.15
2023-05-04T15:01:55.455Z,10.68
2023-05-04T15:04:23.054Z,8.55
2023-05-04T15:06:50.390Z,3.67
2023-05-04T15:09:17.443Z,5.25
2023-05-04T15:11:44.523Z,7.72
2023-05-04T15:14:11.641Z,4.72
2023-05-04T15:16:38.912Z,8.55
2023-05-04T15:19:06.504Z,7.13
2023-05-04T15:21:34.078Z,7.35
2023-05-04T15:24:01.455Z,10.30
2023-05-04T15:26:31.646Z,6.35
2023-05-04T15:28:59.279Z,6.82
2023-05-04T15:31:26.825Z,5.18
2023-05-04T15:33:54.343Z,8.88
2023-05-04T15:36:21.666Z,6.72
2023-05-04T15:38:48.732Z,6.53
2023-05-04T15:41:15.911Z,5.47
2023-05-04T15:43:43.095Z,5.95
2023-05-04T15:46:10.195Z,6.63
2023-05-04T15:48:37.395Z,5.80
2023-05-04T15:51:10.154Z,5.82
2023-05-04T15:53:37.371Z,4.32
2023-05-04T15:56:06.235Z,7.88
2023-05-04T15:58:33.756Z,12.88
2023-05-04T16:01:04.056Z,4.65
2023-05-04T16:03:32.378Z,7.43
2023-05-04T16:05:59.645Z,6.28
2023-05-04T16:08:26.935Z,3.85
2023-05-04T16:10:54.269Z,6.32
2023-05-04T16:13:21.476Z,4.65
2023-05-04T16:15:52.350Z,4.40
2023-05-04T16:18:19.921Z,4.88
2023-05-04T16:20:48.170Z,16.13
2023-05-04T16:23:17.539Z,6.82
2023-05-04T16:25:44.954Z,5.95
2023-05-04T16:28:12.230Z,6.57
2023-05-04T16:30:39.505Z,3.67
2023-05-04T16:33:06.626Z,4.70
2023-05-04T16:35:36.692Z,6.30
2023-05-04T16:38:04.051Z,8.00
2023-05-04T16:40:34.341Z,3.25
2023-05-04T16:43:01.501Z,8.82
2023-05-04T16:45:31.790Z,5.03
2023-05-04T16:48:02.510Z,7.05
2023-05-04T16:50:29.614Z,4.82
2023-05-04T16:52:57.821Z,7.97
2023-05-04T16:55:26.959Z,5.35
2023-05-04T16:57:58.261Z,6.35
2023-05-04T17:00:25.594Z,3.70
2023-05-04T17:02:53.385Z,7.95
2023-05-04T17:05:21.127Z,8.95
2023-05-04T17:07:48.303Z,6.10
2023-05-04T17:10:15.575Z,5.85
2023-05-04T17:12:43.320Z,7.10
2023-05-04T17:15:11.517Z,8.55
2023-05-04T17:17:38.676Z,8.75
2023-05-04T17:20:09.295Z,9.18
2023-05-04T17:22:37.000Z,5.47
2023-05-04T17:25:04.471Z,6.05
2023-05-04T17:27:31.857Z,5.72
2023-05-04T17:29:58.981Z,8.30
2023-05-04T17:32:26.723Z,4.57
2023-05-04T17:34:53.858Z,4.07
2023-05-04T17:37:21.073Z,7.43
2023-05-04T17:39:48.270Z,5.43
2023-05-04T17:42:18.253Z,4.25
2023-05-04T17:44:45.309Z,4.63
2023-05-04T17:47:12.614Z,9.40
2023-05-04T17:49:39.749Z,3.67
2023-05-04T17:52:06.799Z,4.35
2023-05-04T17:54:34.116Z,9.98
2023-05-04T17:57:01.356Z,5.35
2023-05-04T17:59:28.574Z,9.18
2023-05-04T18:01:55.758Z,6.25
2023-05-04T18:04:22.971Z,11.95
2023-05-04T18:06:50.974Z,9.45
2023-05-04T18:09:19.672Z,5.78
2023-05-04T18:11:47.529Z,9.18
2023-05-04T18:14:14.762Z,6.70
2023-05-04T18:16:42.118Z,7.57
2023-05-04T18:19:09.248Z,7.93
2023-05-04T18:21:37.160Z,7.82
2023-05-04T18:24:05.286Z,9.65
2023-05-04T18:26:32.646Z,6.45
2023-05-04T18:29:07.959Z,6.90
2023-05-04T18:31:45.196Z,7.93
2023-05-04T18:34:12.614Z,5.72
2023-05-04T18:36:40.083Z,8.77
2023-05-04T18:39:08.743Z,8.85
2023-05-04T18:41:36.194Z,6.63
2023-05-04T18:44:03.774Z,6.55
2023-05-04T18:46:31.135Z,12.48
2023-05-04T18:48:58.871Z,9.57
2023-05-04T18:51:27.392Z,10.57
2023-05-04T18:53:55.126Z,9.93
2023-05-04T18:56:24.170Z,6.15
2023-05-04T18:58:52.533Z,12.38
2023-05-04T19:01:20.378Z,5.47
2023-05-04T19:03:48.103Z,8.43
2023-05-04T19:06:15.780Z,7.80
2023-05-04T19:08:42.902Z,6.63
2023-05-04T19:11:09.990Z,6.13
2023-05-04T19:13:37.296Z,8.07
2023-05-04T19:16:04.734Z,10.85
2023-05-04T19:18:34.359Z,10.13
2023-05-04T19:21:05.993Z,7.03
2023-05-04T19:23:33.329Z,11.80
2023-05-04T19:26:00.523Z,11.90
2023-05-04T19:28:27.648Z,6.30
2023-05-04T19:30:54.813Z,8.40
2023-05-04T19:33:23.232Z,8.23
2023-05-04T19:35:51.771Z,7.18
2023-05-04T19:38:19.158Z,9.02
2023-05-04T19:40:46.815Z,8.48
2023-05-04T19:43:14.230Z,8.85
2023-05-04T19:45:41.449Z,11.15
2023-05-04T19:48:08.767Z,8.48
2023-05-04T19:50:35.969Z,9.18
2023-05-04T19:53:03.057Z,12.70
2023-05-04T19:55:30.205Z,10.77
2023-05-04T19:57:57.383Z,12.73
2023-05-04T20:00:24.947Z,18.95
2023-05-04T20:02:52.207Z,13.05
2023-05-04T20:05:19.449Z,16.45
2023-05-04T20:07:46.771Z,12.75
2023-05-04T20:10:13.882Z,8.70
2023-05-04T20:12:41.253Z,11.50
2023-05-04T20:15:08.805Z,13.02
2023-05-04T20:17:36.027Z,7.18
2023-05-04T20:20:03.784Z,10.73
2023-05-04T20:22:30.913Z,12.70
2023-05-04T20:24:58.713Z,9.60
2023-05-04T20:27:25.856Z,8.40
2023-05-04T20:29:52.948Z,10.90
2023-05-04T20:32:20.081Z,9.70
2023-05-04T20:40:52.792Z,10.23
2023-05-04T20:43:20.305Z,10.60
2023-05-04T20:45:47.742Z,11.45
2023-05-04T20:48:14.896Z,16.17
2023-05-04T20:50:42.418Z,14.68
2023-05-04T20:53:12.638Z,11.60
2023-05-04T20:55:40.576Z,15.10
2023-05-04T20:58:07.866Z,17.67
2023-05-04T21:00:35.199Z,12.68
2023-05-04T21:03:02.595Z,16.45
2023-05-04T21:05:29.688Z,15.02
2023-05-04T21:07:56.920Z,11.32
2023-05-04T21:10:24.021Z,16.20
2023-05-04T21:12:51.144Z,13.05
2023-05-04T21:15:18.339Z,18.25
2023-05-04T21:17:45.681Z,12.45
2023-05-04T21:20:13.030Z,17.05
2023-05-04T21:22:40.364Z,14.43
2023-05-04T21:25:07.934Z,18.85
2023-05-04T21:27:36.082Z,15.88
2023-05-04T21:30:09.940Z,14.20
2023-05-04T21:32:37.299Z,15.23
2023-05-04T21:35:05.184Z,14.00
2023-05-04T21:37:32.886Z,18.02
2023-05-04T21:40:00.054Z,16.48
2023-05-04T21:42:27.197Z,13.45
2023-05-04T21:44:57.749Z,18.90
2023-05-04T21:47:26.359Z,19.20
2023-05-04T21:49:54.288Z,13.98
2023-05-04T21:52:21.709Z,26.77
2023-05-04T21:54:48.965Z,16.23
2023-05-04T21:57:16.137Z,13.68
2023-05-04T21:59:43.268Z,20.23
2023-05-04T22:02:10.386Z,13.90
2023-05-04T22:04:41.584Z,20.45
2023-05-04T22:07:08.822Z,16.27
2023-05-04T22:09:35.946Z,17.20
2023-05-04T22:12:03.288Z,16.25
2023-05-04T22:14:30.362Z,14.02
2023-05-04T22:16:57.634Z,15.70
2023-05-04T22:19:24.785Z,17.23
2023-05-04T22:21:51.864Z,19.75
2023-05-04T22:24:18.923Z,15.18
2023-05-04T22:26:46.361Z,22.25
2023-05-04T22:29:13.509Z,16.95
2023-05-04T22:31:40.583Z,17.33
2023-05-04T22:34:07.678Z,16.73
2023-05-04T22:36:34.752Z,21.25
2023-05-04T22:39:01.811Z,15.48
2023-05-04T22:41:28.836Z,15.68
2023-05-04T22:43:56.042Z,24.52
2023-05-04T22:46:25.491Z,17.13
2023-05-04T22:48:52.724Z,15.07
2023-05-04T22:51:19.865Z,19.30
2023-05-04T22:53:47.081Z,16.42
2023-05-04T22:56:14.112Z,21.10
2023-05-04T22:58:41.198Z,14.57
2023-05-04T23:01:10.428Z,15.40
2023-05-04T23:03:38.545Z,12.20
2023-05-04T23:06:06.493Z,19.85
2023-05-04T23:08:33.584Z,14.65
2023-05-04T23:11:00.677Z,14.32
2023-05-04T23:13:27.764Z,18.92
2023-05-04T23:15:54.827Z,13.95
2023-05-04T23:18:21.959Z,22.23
2023-05-04T23:20:49.038Z,18.48
2023-05-04T23:23:16.062Z,17.00
2023-05-04T23:25:43.179Z,17.40
2023-05-04T23:28:10.262Z,15.23
2023-05-04T23:30:37.377Z,23.15
2023-05-04T23:33:04.643Z,16.90
2023-05-04T23:35:32.609Z,14.60
2023-05-04T23:37:59.690Z,14.40
2023-05-04T23:40:26.771Z,15.73
2023-05-04T23:42:53.866Z,10.65
2023-05-04T23:45:20.932Z,10.57
2023-05-04T23:47:48.056Z,11.13
2023-05-04T23:50:15.432Z,9.50
2023-05-04T23:52:42.832Z,11.85
2023-05-04T23:55:10.592Z,11.18
2023-05-04T23:57:37.685Z,11.45
